createdAt,value
2023-07-10T00:02:40.547Z,67.34
2023-07-10T00:07:45.584Z,66.70
2023-07-10T00:12:51.631Z,66.73
2023-07-10T00:17:57.874Z,66.15
2023-07-10T00:23:03.819Z,65.57
2023-07-10T00:28:21.102Z,65.40
2023-07-10T00:33:26.939Z,65.86
2023-07-10T00:38:32.468Z,65.85
2023-07-10T00:43:47.045Z,65.54
2023-07-10T00:49:03.393Z,65.79
2023-07-10T00:54:39.682Z,66.71
2023-07-10T00:59:46.379Z,67.59
2023-07-10T01:04:56.214Z,67.90
2023-07-10T01:10:10.202Z,67.23
2023-07-10T01:15:16.934Z,66.86
2023-07-10T01:20:42.311Z,67.21
2023-07-10T01:25:57.070Z,66.65
2023-07-10T01:31:10.304Z,66.61
2023-07-10T01:36:19.207Z,66.85
2023-07-10T01:41:48.716Z,66.76
2023-07-10T01:46:54.941Z,66.99
2023-07-10T01:52:03.864Z,67.27
2023-07-10T01:57:12.116Z,66.92
2023-07-10T02:02:18.382Z,66.77
2023-07-10T02:07:24.186Z,66.90
2023-07-10T02:12:30.131Z,66.84
2023-07-10T02:17:35.700Z,66.53
2023-07-10T02:22:40.602Z,66.73
2023-07-10T02:27:44.977Z,64.67
2023-07-10T02:32:49.315Z,62.19
2023-07-10T02:37:55.377Z,61.48
2023-07-10T02:43:01.369Z,61.42
2023-07-10T02:48:07.605Z,60.74
2023-07-10T02:53:13.836Z,60.14
2023-07-10T02:58:20.968Z,60.14
2023-07-10T03:03:28.137Z,59.51
2023-07-10T03:08:34.638Z,57.89
2023-07-10T03:13:40.293Z,56.27
2023-07-10T03:18:47.385Z,55.04
2023-07-10T03:23:53.757Z,54.85
2023-07-10T03:29:09.420Z,53.56
2023-07-10T03:34:15.715Z,54.96
2023-07-10T03:39:21.696Z,50.96
2023-07-10T03:44:26.373Z,51.29
2023-07-10T03:49:30.718Z,49.80
2023-07-10T03:54:35.334Z,49.58
2023-07-10T03:59:41.534Z,48.63
2023-07-10T04:04:47.450Z,49.05
2023-07-10T04:09:54.396Z,48.56
2023-07-10T04:14:59.843Z,47.97
2023-07-10T04:20:06.739Z,47.06
2023-07-10T04:25:13.011Z,46.45
2023-07-10T04:30:18.995Z,47.08
2023-07-10T04:35:23.339Z,43.79
2023-07-10T04:40:28.970Z,43.52
2023-07-10T04:45:33.427Z,43.08
2023-07-10T04:50:37.761Z,43.64
2023-07-10T04:55:42.249Z,43.56
2023-07-10T05:00:53.999Z,42.60
2023-07-10T05:06:19.892Z,42.12
2023-07-10T05:11:26.896Z,42.40
2023-07-10T05:16:32.761Z,41.39
2023-07-10T05:21:37.513Z,42.27
2023-07-10T05:26:41.835Z,41.55
2023-07-10T05:31:46.259Z,42.92
2023-07-10T05:36:51.127Z,44.34
2023-07-10T05:41:55.388Z,44.06
2023-07-10T05:46:59.664Z,45.10
2023-07-10T05:52:04.270Z,45.39
2023-07-10T05:57:09.164Z,44.99
2023-07-10T06:02:13.564Z,45.31
2023-07-10T06:07:17.911Z,45.80
2023-07-10T06:12:22.330Z,45.57
2023-07-10T06:17:26.669Z,44.90
2023-07-10T06:22:30.988Z,44.62
2023-07-10T06:27:35.470Z,43.18
2023-07-10T06:32:39.963Z,44.52
2023-07-10T06:37:45.580Z,44.85
2023-07-10T06:42:49.915Z,44.52
2023-07-10T06:47:55.317Z,44.75
2023-07-10T06:53:08.337Z,45.07
2023-07-10T06:58:24.271Z,44.17
2023-07-10T07:03:29.510Z,43.77
2023-07-10T07:08:33.956Z,43.99
2023-07-10T07:13:38.414Z,43.27
2023-07-10T07:18:42.938Z,43.52
2023-07-10T07:23:48.948Z,45.19
2023-07-10T07:28:54.446Z,44.52
2023-07-10T07:33:58.754Z,43.64
2023-07-10T07:39:07.299Z,43.98
2023-07-10T07:44:11.577Z,45.09
2023-07-10T07:49:16.016Z,45.27
2023-07-10T07:54:21.091Z,44.45
2023-07-10T07:59:25.647Z,44.06
2023-07-10T08:04:55.593Z,43.87
2023-07-10T08:10:00.735Z,44.39
2023-07-10T08:15:06.356Z,43.90
2023-07-10T08:20:10.651Z,44.17
2023-07-10T08:25:14.948Z,43.41
2023-07-10T08:30:19.244Z,43.75
2023-07-10T08:35:24.051Z,43.43
2023-07-10T08:40:37.488Z,42.58
2023-07-10T08:45:42.812Z,43.51
2023-07-10T08:50:49.369Z,42.50
2023-07-10T08:56:16.268Z,43.83
2023-07-10T09:01:31.919Z,42.33
2023-07-10T09:06:44.992Z,42.04
2023-07-10T09:11:50.882Z,41.25
2023-07-10T09:16:57.542Z,41.35
2023-07-10T09:22:02.100Z,42.20
2023-07-10T09:27:15.325Z,42.41
2023-07-10T09:32:22.107Z,40.71
2023-07-10T09:37:36.681Z,41.18
2023-07-10T09:42:43.366Z,42.13
2023-07-10T09:47:52.913Z,41.75
2023-07-10T09:52:58.039Z,42.71
2023-07-10T10:04:40.368Z,41.68
2023-07-10T10:09:44.899Z,40.93
2023-07-10T10:15:04.545Z,40.44
2023-07-10T10:20:22.641Z,40.94
2023-07-10T10:25:39.386Z,41.02
2023-07-10T10:37:24.566Z,41.06
2023-07-10T10:42:44.398Z,40.98
2023-07-10T10:55:33.142Z,41.02
2023-07-10T11:01:25.064Z,40.28
2023-07-10T11:13:32.244Z,42.36
2023-07-10T11:18:39.343Z,43.09
2023-07-10T11:23:43.681Z,43.50
2023-07-10T11:34:07.336Z,43.56
2023-07-10T11:39:34.904Z,44.21
2023-07-10T11:44:42.866Z,43.83
2023-07-10T11:57:46.231Z,44.33
2023-07-10T12:02:54.763Z,44.56
2023-07-10T12:22:02.341Z,46.99
2023-07-10T12:28:13.189Z,47.91
2023-07-10T12:39:11.909Z,48.30
2023-07-10T12:44:24.735Z,48.89
2023-07-10T12:49:32.229Z,49.00
2023-07-10T12:54:49.538Z,49.78
2023-07-10T13:00:02.426Z,49.94
2023-07-10T13:05:20.268Z,49.57
2023-07-10T13:10:30.344Z,48.76
2023-07-10T13:15:43.720Z,48.59
2023-07-10T13:20:48.941Z,48.53
2023-07-10T13:33:39.429Z,49.22
2023-07-10T13:38:44.369Z,50.32
2023-07-10T13:43:49.317Z,51.09
2023-07-10T13:48:58.667Z,51.49
2023-07-10T13:54:03.507Z,53.35
2023-07-10T13:59:19.454Z,53.67
2023-07-10T14:04:25.271Z,53.85
2023-07-10T14:09:31.997Z,53.51
2023-07-10T14:14:37.700Z,54.07
2023-07-10T14:19:43.485Z,54.63
2023-07-10T14:24:49.100Z,53.80
2023-07-10T14:29:57.769Z,53.45
2023-07-10T14:35:03.653Z,53.55
2023-07-10T14:40:14.430Z,54.15
2023-07-10T14:45:20.664Z,55.54
2023-07-10T14:50:26.377Z,56.36
2023-07-10T14:55:31.746Z,56.58
2023-07-10T15:00:37.790Z,56.59
2023-07-10T15:05:45.986Z,56.92
2023-07-10T15:10:53.073Z,56.37
2023-07-10T15:16:02.205Z,56.88
2023-07-10T15:21:08.126Z,57.10
2023-07-10T15:26:14.397Z,58.11
2023-07-10T15:31:20.008Z,58.80
2023-07-10T15:36:25.681Z,60.29
2023-07-10T15:41:31.247Z,60.84
2023-07-10T15:46:36.907Z,61.78
2023-07-10T15:51:42.602Z,64.73
2023-07-10T15:56:49.207Z,69.61
2023-07-10T16:01:54.951Z,72.54
2023-07-10T16:07:00.708Z,73.80
2023-07-10T16:12:06.670Z,73.87
2023-07-10T16:17:16.853Z,74.17
2023-07-10T16:22:22.837Z,74.01
2023-07-10T16:27:28.616Z,73.16
2023-07-10T16:32:34.209Z,72.80
2023-07-10T16:37:39.962Z,75.13
2023-07-10T16:42:47.222Z,76.42
2023-07-10T16:47:53.232Z,77.75
2023-07-10T16:52:59.338Z,79.70
2023-07-10T16:58:12.759Z,78.38
2023-07-10T17:03:26.675Z,79.82
2023-07-10T17:08:32.520Z,78.89
2023-07-10T17:13:40.178Z,79.60
2023-07-10T17:18:45.813Z,80.15
2023-07-10T17:23:51.470Z,80.66
2023-07-10T17:28:57.169Z,81.13
2023-07-10T17:34:04.621Z,82.51
2023-07-10T17:39:25.025Z,81.63
2023-07-10T17:44:35.300Z,81.01
2023-07-10T17:49:43.978Z,81.13
2023-07-10T17:54:52.718Z,81.33
2023-07-10T17:59:58.359Z,82.23
2023-07-10T18:05:17.146Z,82.57
2023-07-10T18:10:23.090Z,81.36
2023-07-10T18:15:28.723Z,82.13
2023-07-10T18:20:34.473Z,81.90
2023-07-10T18:25:40.112Z,81.37
2023-07-10T18:30:47.273Z,81.77
2023-07-10T18:35:54.351Z,81.02
2023-07-10T18:41:00.384Z,80.97
2023-07-10T18:46:06.624Z,81.00
2023-07-10T18:51:31.030Z,80.49
2023-07-10T18:56:36.612Z,80.36
2023-07-10T19:01:43.652Z,80.37
2023-07-10T19:06:51.493Z,80.38
2023-07-10T19:11:58.184Z,79.90
2023-07-10T19:17:05.989Z,80.27
2023-07-10T19:22:12.119Z,80.15
2023-07-10T19:27:17.831Z,80.18
2023-07-10T19:32:26.502Z,79.65
2023-07-10T19:37:33.060Z,80.16
2023-07-10T19:42:38.704Z,79.69
2023-07-10T19:47:45.525Z,80.44
2023-07-10T19:52:51.182Z,79.74
2023-07-10T19:57:56.868Z,79.88
2023-07-10T20:03:02.602Z,78.60
2023-07-10T20:08:21.736Z,78.44
2023-07-10T20:13:30.883Z,78.55
2023-07-10T20:18:38.565Z,78.13
2023-07-10T20:23:44.307Z,78.62
2023-07-10T20:28:50.618Z,78.02
2023-07-10T20:33:56.505Z,78.08
2023-07-10T20:39:02.216Z,78.12
2023-07-10T20:44:20.076Z,77.79
2023-07-10T20:49:28.463Z,77.98
2023-07-10T20:54:36.291Z,78.14
2023-07-10T20:59:42.635Z,76.94
2023-07-10T21:04:48.697Z,76.17
2023-07-10T21:09:54.934Z,75.74
2023-07-10T21:15:00.616Z,75.83
2023-07-10T21:20:06.914Z,76.57
2023-07-10T21:25:12.376Z,76.19
2023-07-10T21:30:20.796Z,77.03
2023-07-10T21:35:28.330Z,76.91
2023-07-10T21:40:39.038Z,76.86
2023-07-10T21:45:45.473Z,76.66
2023-07-10T21:50:52.654Z,76.80
2023-07-10T21:56:03.731Z,76.20
2023-07-10T22:01:15.363Z,75.97
2023-07-10T22:06:22.075Z,76.07
2023-07-10T22:11:33.930Z,76.21
2023-07-10T22:24:21.963Z,76.01
2023-07-10T22:37:01.151Z,77.81
2023-07-10T22:42:07.463Z,77.70
2023-07-10T22:47:13.437Z,78.24
2023-07-10T22:52:18.758Z,77.95
2023-07-10T22:57:24.258Z,78.04
2023-07-10T23:02:29.838Z,77.71
2023-07-10T23:07:36.740Z,77.75
2023-07-10T23:12:44.392Z,77.96
2023-07-10T23:17:50.217Z,77.93
2023-07-10T23:22:56.221Z,78.41
2023-07-10T23:28:02.880Z,77.64
2023-07-10T23:33:08.538Z,77.92
2023-07-10T23:38:14.126Z,77.47
2023-07-10T23:43:19.720Z,77.12
2023-07-10T23:48:25.287Z,77.36
2023-07-10T23:53:32.805Z,77.31
2023-07-10T23:58:38.588Z,77.38
